Time;durP1;ratioP1;P1;durP2;ratioP2;P2;SDS_P1;SDS_P2;PMS_P1;PMS_P2;Temp;Humidity;BMP_temperature;BMP_pressure;BME280_temperature;BME280_humidity;BME280_pressure;Samples;Min_cycle;Max_cycle;Signal;HPM_P1;HPM_P2
2023/08/16 00:01:13;;;;;;;4.43;2.30;;;;;;;;;;5077008;28;20490;-80
2023/08/16 00:03:39;;;;;;;4.07;2.83;;;;;;;;;;5071632;28;20028;-80
2023/08/16 00:06:11;;;;;;;5.13;2.33;;;;;;;;;;5072919;28;20023;-80
2023/08/16 00:08:36;;;;;;;3.80;2.10;;;;;;;;;;5076486;28;20417;-80
2023/08/16 00:11:02;;;;;;;5.03;2.17;;;;;;;;;;5076325;28;20460;-80
2023/08/16 00:13:27;;;;;;;4.28;2.20;;;;;;;;;;5069697;28;20047;-80
2023/08/16 00:15:53;;;;;;;3.97;2.40;;;;;;;;;;5069284;28;20176;-80
2023/08/16 00:18:18;;;;;;;4.63;2.38;;;;;;;;;;5076000;28;20024;-80
2023/08/16 00:20:45;;;;;;;3.65;2.40;;;;;;;;;;5076463;28;20055;-80
2023/08/16 00:23:10;;;;;;;7.07;2.50;;;;;;;;;;5086064;28;20013;-80
2023/08/16 00:25:36;;;;;;;3.90;2.22;;;;;;;;;;5075101;28;20016;-80
2023/08/16 00:28:01;;;;;;;5.97;2.80;;;;;;;;;;5077015;28;20028;-80
2023/08/16 00:30:26;;;;;;;8.18;2.78;;;;;;;;;;5076355;28;20024;-80
2023/08/16 00:32:52;;;;;;;4.72;3.03;;;;;;;;;;5071174;28;20029;-80
2023/08/16 00:35:17;;;;;;;6.55;2.80;;;;;;;;;;5075075;28;20159;-80
2023/08/16 00:37:43;;;;;;;6.40;2.97;;;;;;;;;;5077143;28;20371;-79
2023/08/16 00:40:08;;;;;;;7.85;3.08;;;;;;;;;;5078467;28;20019;-79
2023/08/16 00:42:34;;;;;;;5.57;3.10;;;;;;;;;;5077564;28;20137;-80
2023/08/16 00:44:59;;;;;;;4.95;2.80;;;;;;;;;;5065657;28;20012;-79
2023/08/16 00:47:27;;;;;;;7.30;3.00;;;;;;;;;;5091125;28;20024;-80
2023/08/16 00:49:53;;;;;;;6.85;3.53;;;;;;;;;;5095096;28;20020;-80
2023/08/16 00:52:18;;;;;;;8.90;2.67;;;;;;;;;;5069946;28;20017;-80
2023/08/16 00:54:43;;;;;;;5.55;2.53;;;;;;;;;;5076213;28;20031;-79
2023/08/16 00:57:09;;;;;;;5.97;2.42;;;;;;;;;;5076880;28;20024;-80
2023/08/16 00:59:35;;;;;;;5.03;2.83;;;;;;;;;;5072967;28;20016;-80
2023/08/16 01:02:00;;;;;;;3.80;2.65;;;;;;;;;;5076406;28;20027;-80
2023/08/16 01:04:25;;;;;;;11.75;2.85;;;;;;;;;;5076177;28;20032;-80
2023/08/16 01:06:57;;;;;;;5.57;3.05;;;;;;;;;;5075587;28;20451;-80
2023/08/16 01:09:22;;;;;;;13.20;3.00;;;;;;;;;;5075710;28;20024;-80
2023/08/16 01:11:52;;;;;;;4.40;2.90;;;;;;;;;;5075983;28;20024;-80
2023/08/16 01:14:24;;;;;;;9.02;2.58;;;;;;;;;;5075652;28;20098;-79
2023/08/16 01:16:51;;;;;;;4.60;2.67;;;;;;;;;;5056277;28;20028;-80
2023/08/16 01:19:20;;;;;;;4.18;2.65;;;;;;;;;;5059034;28;20052;-79
2023/08/16 01:21:53;;;;;;;5.63;2.45;;;;;;;;;;5061189;28;20414;-80
2023/08/16 01:24:23;;;;;;;3.40;2.35;;;;;;;;;;5068583;28;20103;-79
2023/08/16 01:26:53;;;;;;;5.88;2.80;;;;;;;;;;5075171;28;20020;-80
2023/08/16 01:29:18;;;;;;;8.88;2.50;;;;;;;;;;5075318;28;20022;-80
2023/08/16 01:31:44;;;;;;;4.60;2.50;;;;;;;;;;5074936;28;20028;-80
2023/08/16 01:34:09;;;;;;;7.72;2.40;;;;;;;;;;5077285;28;20028;-80
2023/08/16 01:36:34;;;;;;;5.00;2.80;;;;;;;;;;5074927;28;20020;-80
2023/08/16 01:39:00;;;;;;;5.90;2.80;;;;;;;;;;5057527;28;20031;-80
2023/08/16 01:41:28;;;;;;;7.88;2.78;;;;;;;;;;5074678;28;20121;-80
2023/08/16 01:43:55;;;;;;;8.88;3.22;;;;;;;;;;5074621;28;20109;-80
2023/08/16 01:46:21;;;;;;;5.32;2.85;;;;;;;;;;5074698;28;20184;-80
2023/08/16 01:48:46;;;;;;;3.95;2.53;;;;;;;;;;5071520;28;20419;-79
2023/08/16 01:51:12;;;;;;;9.60;2.60;;;;;;;;;;5053033;28;20044;-79
2023/08/16 01:53:40;;;;;;;4.25;2.30;;;;;;;;;;5044405;28;20119;-80
2023/08/16 01:56:06;;;;;;;5.18;2.53;;;;;;;;;;5055110;28;20438;-80
2023/08/16 01:58:31;;;;;;;5.63;2.17;;;;;;;;;;5054602;28;20039;-80
2023/08/16 02:01:00;;;;;;;3.45;2.10;;;;;;;;;;5054766;28;20020;-79
2023/08/16 02:03:26;;;;;;;4.93;2.35;;;;;;;;;;5054962;28;20062;-80
2023/08/16 02:05:53;;;;;;;5.38;2.25;;;;;;;;;;5055307;28;20024;-80
2023/08/16 02:08:19;;;;;;;4.80;2.50;;;;;;;;;;5073070;28;20012;-81
2023/08/16 02:10:45;;;;;;;6.60;3.00;;;;;;;;;;5054372;28;20391;-80
2023/08/16 02:13:10;;;;;;;10.43;3.30;;;;;;;;;;5073199;28;20348;-80
2023/08/16 02:15:35;;;;;;;4.82;2.92;;;;;;;;;;5055545;28;20106;-80
2023/08/16 02:18:02;;;;;;;5.45;2.85;;;;;;;;;;5054992;28;20013;-80
2023/08/16 02:20:27;;;;;;;6.18;3.00;;;;;;;;;;5054907;28;20109;-81
2023/08/16 02:22:52;;;;;;;7.93;3.33;;;;;;;;;;5055055;28;20020;-80
2023/08/16 02:25:18;;;;;;;8.07;2.92;;;;;;;;;;5055175;28;20008;-80
2023/08/16 02:27:43;;;;;;;6.25;2.80;;;;;;;;;;5054867;28;20104;-80
2023/08/16 02:30:09;;;;;;;4.50;2.53;;;;;;;;;;5053779;28;20071;-79
2023/08/16 02:32:35;;;;;;;4.45;3.13;;;;;;;;;;5054251;28;20017;-80
2023/08/16 02:35:00;;;;;;;5.43;3.00;;;;;;;;;;5054222;28;20024;-79
2023/08/16 02:37:26;;;;;;;5.38;3.13;;;;;;;;;;5053804;28;20017;-80
2023/08/16 02:39:52;;;;;;;6.32;3.25;;;;;;;;;;5053857;28;20024;-80
2023/08/16 02:42:17;;;;;;;4.90;3.20;;;;;;;;;;5053816;28;20024;-79
2023/08/16 02:44:42;;;;;;;6.50;3.95;;;;;;;;;;5074060;28;20165;-80
2023/08/16 02:47:08;;;;;;;8.82;4.07;;;;;;;;;;5058416;28;20471;-80
2023/08/16 02:49:33;;;;;;;8.00;3.83;;;;;;;;;;5056337;28;20017;-80
2023/08/16 02:51:58;;;;;;;5.72;3.50;;;;;;;;;;5058044;28;20033;-80
2023/08/16 02:54:24;;;;;;;5.60;3.30;;;;;;;;;;5057811;28;20525;-80
2023/08/16 02:56:49;;;;;;;6.97;3.45;;;;;;;;;;5057583;28;20024;-80
2023/08/16 02:59:14;;;;;;;13.23;3.85;;;;;;;;;;5057206;28;20020;-80
2023/08/16 03:01:40;;;;;;;8.52;3.95;;;;;;;;;;5057706;28;20021;-81
2023/08/16 03:04:05;;;;;;;6.95;3.97;;;;;;;;;;5057940;28;20024;-80
2023/08/16 03:06:30;;;;;;;8.68;3.90;;;;;;;;;;5057627;28;20021;-80
2023/08/16 03:08:56;;;;;;;6.75;3.70;;;;;;;;;;5074818;28;20029;-80
2023/08/16 03:11:21;;;;;;;7.60;4.03;;;;;;;;;;5069682;28;20127;-79
2023/08/16 03:13:46;;;;;;;7.63;4.10;;;;;;;;;;5077527;28;20023;-80
2023/08/16 03:16:12;;;;;;;8.27;4.13;;;;;;;;;;5077254;28;20032;-80
2023/08/16 03:18:37;;;;;;;8.25;4.00;;;;;;;;;;5077354;28;20024;-80
2023/08/16 03:21:02;;;;;;;8.43;4.00;;;;;;;;;;5077525;28;20016;-80
2023/08/16 03:23:28;;;;;;;8.20;4.70;;;;;;;;;;5074103;28;20024;-82
2023/08/16 03:25:53;;;;;;;8.95;4.13;;;;;;;;;;5077211;28;20099;-81
2023/08/16 03:28:18;;;;;;;10.18;4.03;;;;;;;;;;5077754;28;20016;-80
2023/08/16 03:30:44;;;;;;;10.63;4.93;;;;;;;;;;5064216;28;20023;-80
2023/08/16 03:33:12;;;;;;;9.23;5.28;;;;;;;;;;5068659;28;20059;-80
2023/08/16 03:35:37;;;;;;;8.25;4.75;;;;;;;;;;5073859;28;20344;-80
2023/08/16 03:38:03;;;;;;;9.88;4.75;;;;;;;;;;5078270;28;20069;-80
2023/08/16 03:40:28;;;;;;;13.75;4.80;;;;;;;;;;5097039;28;20431;-80
2023/08/16 03:42:56;;;;;;;8.88;4.97;;;;;;;;;;5078417;28;20028;-80
2023/08/16 03:45:24;;;;;;;12.15;4.38;;;;;;;;;;5069970;28;20020;-80
2023/08/16 03:47:51;;;;;;;11.43;4.38;;;;;;;;;;5063826;28;20028;-81
2023/08/16 03:50:16;;;;;;;7.93;4.57;;;;;;;;;;5077682;28;20105;-80
2023/08/16 03:52:42;;;;;;;11.38;5.15;;;;;;;;;;5065520;28;20021;-80
2023/08/16 03:55:07;;;;;;;11.25;5.15;;;;;;;;;;5077477;28;20097;-80
2023/08/16 03:57:33;;;;;;;12.52;5.50;;;;;;;;;;5075109;28;20020;-79
2023/08/16 03:59:58;;;;;;;9.90;5.40;;;;;;;;;;5057037;28;20071;-80
2023/08/16 04:02:23;;;;;;;11.95;4.90;;;;;;;;;;5057241;28;20055;-79
2023/08/16 04:04:51;;;;;;;7.15;4.13;;;;;;;;;;5056003;28;20023;-80
2023/08/16 04:07:16;;;;;;;9.18;4.50;;;;;;;;;;5056611;28;20031;-80
2023/08/16 04:09:41;;;;;;;10.98;4.07;;;;;;;;;;5074450;28;20029;-80
2023/08/16 04:12:07;;;;;;;11.27;4.88;;;;;;;;;;5056777;28;20035;-80
2023/08/16 04:14:32;;;;;;;9.70;5.55;;;;;;;;;;5056643;28;20027;-80
2023/08/16 04:17:00;;;;;;;6.78;4.45;;;;;;;;;;5056512;28;20039;-79
2023/08/16 04:19:25;;;;;;;10.05;4.75;;;;;;;;;;5056823;28;20117;-80
2023/08/16 04:21:50;;;;;;;7.95;4.50;;;;;;;;;;5056466;28;20059;-80
2023/08/16 04:24:18;;;;;;;12.45;5.47;;;;;;;;;;5056289;28;20475;-80
2023/08/16 04:26:45;;;;;;;11.25;5.03;;;;;;;;;;5055370;28;20017;-79
2023/08/16 04:29:11;;;;;;;9.45;5.55;;;;;;;;;;5074298;28;20421;-80
2023/08/16 04:31:36;;;;;;;8.05;4.60;;;;;;;;;;5055947;28;20055;-80
2023/08/16 04:34:02;;;;;;;8.43;4.95;;;;;;;;;;5055884;28;20051;-80
2023/08/16 04:36:27;;;;;;;9.18;4.20;;;;;;;;;;5055998;28;20032;-80
2023/08/16 04:38:52;;;;;;;11.63;5.65;;;;;;;;;;5073839;28;20066;-80
2023/08/16 04:41:18;;;;;;;8.63;5.03;;;;;;;;;;5055791;28;20039;-80
2023/08/16 04:43:43;;;;;;;9.57;5.28;;;;;;;;;;5055670;28;20036;-80
2023/08/16 04:46:08;;;;;;;11.02;5.07;;;;;;;;;;5056847;28;20052;-79
2023/08/16 04:48:34;;;;;;;15.27;5.55;;;;;;;;;;5055876;28;20101;-80
2023/08/16 04:51:01;;;;;;;9.27;5.20;;;;;;;;;;5055280;28;20123;-80
2023/08/16 04:53:27;;;;;;;9.35;5.05;;;;;;;;;;5055881;28;20024;-80
2023/08/16 04:55:58;;;;;;;15.55;5.32;;;;;;;;;;5056361;28;20131;-80
2023/08/16 04:58:23;;;;;;;14.98;6.03;;;;;;;;;;5056508;28;20416;-80
2023/08/16 05:00:49;;;;;;;11.85;5.32;;;;;;;;;;5056361;28;20444;-79
2023/08/16 05:03:14;;;;;;;10.30;5.32;;;;;;;;;;5057643;28;20016;-80
2023/08/16 05:05:39;;;;;;;7.47;5.05;;;;;;;;;;5056374;28;20020;-80
2023/08/16 05:08:05;;;;;;;11.35;5.55;;;;;;;;;;5056858;28;20008;-80
2023/08/16 05:10:30;;;;;;;12.48;5.82;;;;;;;;;;5057083;28;20040;-80
2023/08/16 05:12:55;;;;;;;10.73;5.82;;;;;;;;;;5056761;28;20376;-80
2023/08/16 05:15:21;;;;;;;6.72;4.68;;;;;;;;;;5055494;28;20459;-80
2023/08/16 05:17:46;;;;;;;9.45;4.72;;;;;;;;;;5054993;28;20119;-80
2023/08/16 05:20:14;;;;;;;7.07;3.70;;;;;;;;;;5056348;28;20020;-80
2023/08/16 05:22:42;;;;;;;8.70;4.72;;;;;;;;;;5055688;28;20421;-80
2023/08/16 05:25:07;;;;;;;6.97;4.95;;;;;;;;;;5055626;28;20074;-81
2023/08/16 05:27:33;;;;;;;10.68;5.18;;;;;;;;;;5055576;28;20020;-80
2023/08/16 05:29:58;;;;;;;8.48;4.97;;;;;;;;;;5055453;28;20020;-80
2023/08/16 05:32:24;;;;;;;12.57;5.32;;;;;;;;;;5054561;28;20012;-81
2023/08/16 05:34:51;;;;;;;13.15;4.90;;;;;;;;;;5055104;28;20042;-80
2023/08/16 05:37:16;;;;;;;15.57;5.80;;;;;;;;;;5054782;28;20321;-80
2023/08/16 05:39:41;;;;;;;10.50;5.60;;;;;;;;;;5054980;28;20467;-80
2023/08/16 05:42:06;;;;;;;11.70;6.03;;;;;;;;;;5054844;28;20493;-79
2023/08/16 05:44:32;;;;;;;14.50;5.68;;;;;;;;;;5054955;28;20025;-80
2023/08/16 05:46:57;;;;;;;12.30;5.97;;;;;;;;;;5055108;28;20454;-80
2023/08/16 05:49:22;;;;;;;11.77;5.13;;;;;;;;;;5054773;28;20066;-80
2023/08/16 05:51:51;;;;;;;10.98;5.53;;;;;;;;;;5052840;28;20376;-79
2023/08/16 05:54:16;;;;;;;14.13;6.45;;;;;;;;;;5051383;28;20084;-80
2023/08/16 05:56:41;;;;;;;11.82;5.70;;;;;;;;;;5051329;28;20043;-80
2023/08/16 05:59:07;;;;;;;12.25;5.90;;;;;;;;;;5052893;28;20107;-79
2023/08/16 06:01:32;;;;;;;12.32;6.35;;;;;;;;;;5052259;28;20075;-80
2023/08/16 06:03:57;;;;;;;13.63;6.35;;;;;;;;;;5054143;28;20166;-80
2023/08/16 06:06:23;;;;;;;13.90;5.47;;;;;;;;;;5054186;28;20015;-80
2023/08/16 06:08:49;;;;;;;12.68;5.82;;;;;;;;;;5054272;28;20111;-80
2023/08/16 06:11:15;;;;;;;11.50;6.25;;;;;;;;;;5051330;28;20032;-80
2023/08/16 06:13:40;;;;;;;9.43;6.13;;;;;;;;;;5048104;28;20095;-80
2023/08/16 06:16:05;;;;;;;13.45;6.45;;;;;;;;;;5051408;28;20039;-80
2023/08/16 06:18:31;;;;;;;9.25;5.60;;;;;;;;;;5051340;28;20486;-80
2023/08/16 06:20:56;;;;;;;11.15;5.50;;;;;;;;;;5054553;28;20020;-79
2023/08/16 06:23:21;;;;;;;10.43;5.68;;;;;;;;;;5055200;28;20017;-80
2023/08/16 06:25:47;;;;;;;11.63;5.35;;;;;;;;;;5055206;28;20023;-80
2023/08/16 06:28:12;;;;;;;10.82;4.85;;;;;;;;;;5055200;28;20027;-81
2023/08/16 06:30:37;;;;;;;15.73;6.60;;;;;;;;;;5055657;28;20025;-80
2023/08/16 06:33:03;;;;;;;9.70;5.40;;;;;;;;;;5056308;28;20040;-80
2023/08/16 06:35:34;;;;;;;12.98;6.03;;;;;;;;;;5050939;28;20025;-81
2023/08/16 06:38:01;;;;;;;10.70;6.15;;;;;;;;;;5055524;28;20029;-80
2023/08/16 06:40:27;;;;;;;9.48;5.65;;;;;;;;;;5054946;28;20012;-80
2023/08/16 06:42:52;;;;;;;10.75;6.10;;;;;;;;;;5052120;28;20020;-80
2023/08/16 06:45:17;;;;;;;11.38;6.65;;;;;;;;;;5054364;28;20020;-80
2023/08/16 06:47:43;;;;;;;8.63;4.65;;;;;;;;;;5054717;28;20021;-80
2023/08/16 06:50:08;;;;;;;9.88;6.20;;;;;;;;;;5054326;28;20031;-80
2023/08/16 06:52:33;;;;;;;10.23;6.43;;;;;;;;;;5053576;28;20033;-79
2023/08/16 06:55:00;;;;;;;12.10;6.47;;;;;;;;;;5054739;28;20410;-80
2023/08/16 06:57:25;;;;;;;7.53;4.43;;;;;;;;;;5071056;28;20085;-79
2023/08/16 06:59:50;;;;;;;11.45;6.75;;;;;;;;;;5054327;28;20456;-80
2023/08/16 07:02:17;;;;;;;13.10;6.20;;;;;;;;;;5053165;28;20431;-80
2023/08/16 07:04:42;;;;;;;11.85;5.68;;;;;;;;;;5053453;28;20052;-80
2023/08/16 07:07:08;;;;;;;11.68;5.32;;;;;;;;;;5054115;28;20027;-79
2023/08/16 07:09:33;;;;;;;16.40;6.70;;;;;;;;;;5053947;28;20210;-79
2023/08/16 07:11:58;;;;;;;11.45;6.10;;;;;;;;;;5072333;28;20020;-80
2023/08/16 07:14:24;;;;;;;13.15;6.57;;;;;;;;;;5052470;28;20492;-80
2023/08/16 07:16:51;;;;;;;10.30;6.25;;;;;;;;;;5052883;28;20403;-80
2023/08/16 07:19:16;;;;;;;14.35;6.50;;;;;;;;;;5052045;28;20033;-80
2023/08/16 07:21:42;;;;;;;10.00;5.35;;;;;;;;;;5053173;28;20128;-80
2023/08/16 07:24:07;;;;;;;8.57;4.50;;;;;;;;;;5049322;28;20016;-80
2023/08/16 07:26:32;;;;;;;12.00;5.90;;;;;;;;;;5053057;28;20340;-80
2023/08/16 07:28:57;;;;;;;15.43;6.00;;;;;;;;;;5053307;28;20048;-80
2023/08/16 07:31:23;;;;;;;14.38;6.18;;;;;;;;;;5052576;28;20035;-80
2023/08/16 07:33:48;;;;;;;15.20;5.45;;;;;;;;;;5055991;28;20115;-80
2023/08/16 07:36:13;;;;;;;11.55;5.25;;;;;;;;;;5058299;28;20020;-79
2023/08/16 07:38:39;;;;;;;11.55;5.43;;;;;;;;;;5066230;28;20111;-80
2023/08/16 07:41:04;;;;;;;9.82;5.72;;;;;;;;;;5062759;28;20051;-80
2023/08/16 07:43:29;;;;;;;9.35;5.65;;;;;;;;;;5059346;28;20020;-80
2023/08/16 07:45:55;;;;;;;11.90;6.43;;;;;;;;;;5068339;28;20020;-80
2023/08/16 07:48:21;;;;;;;10.70;6.20;;;;;;;;;;5067230;28;20028;-80
2023/08/16 07:50:46;;;;;;;12.57;6.30;;;;;;;;;;5073485;28;20024;-80
2023/08/16 07:53:12;;;;;;;13.02;6.32;;;;;;;;;;5090781;28;20012;-80
2023/08/16 07:55:37;;;;;;;11.27;6.20;;;;;;;;;;5072403;28;20041;-80
2023/08/16 07:58:03;;;;;;;12.55;6.75;;;;;;;;;;5060052;28;20059;-80
2023/08/16 08:00:29;;;;;;;13.52;6.80;;;;;;;;;;5063421;28;20038;-80
2023/08/16 08:02:55;;;;;;;9.25;5.80;;;;;;;;;;5075356;28;20021;-80
2023/08/16 08:05:21;;;;;;;15.90;6.18;;;;;;;;;;5057265;28;20355;-80
2023/08/16 08:07:47;;;;;;;9.98;5.35;;;;;;;;;;5057236;28;20103;-80
2023/08/16 08:10:13;;;;;;;16.45;6.03;;;;;;;;;;5054764;28;20017;-80
2023/08/16 08:12:38;;;;;;;16.15;6.03;;;;;;;;;;5071797;28;20123;-80
2023/08/16 08:15:04;;;;;;;11.35;5.35;;;;;;;;;;5054981;28;20021;-80
2023/08/16 08:17:29;;;;;;;10.10;5.93;;;;;;;;;;5074503;28;20024;-80
2023/08/16 08:19:54;;;;;;;9.50;4.68;;;;;;;;;;5056650;28;20024;-80
2023/08/16 08:22:20;;;;;;;7.00;4.80;;;;;;;;;;5054758;28;20020;-80
2023/08/16 08:24:45;;;;;;;7.05;4.70;;;;;;;;;;5055221;28;20020;-80
2023/08/16 08:27:11;;;;;;;9.50;4.45;;;;;;;;;;5055967;28;20029;-80
2023/08/16 08:29:38;;;;;;;10.70;4.65;;;;;;;;;;5056431;28;20020;-80
2023/08/16 08:32:03;;;;;;;9.80;4.78;;;;;;;;;;5055657;28;20021;-79
2023/08/16 08:34:28;;;;;;;8.20;4.43;;;;;;;;;;5056099;28;20036;-79
2023/08/16 08:36:54;;;;;;;8.00;4.72;;;;;;;;;;5055374;28;20044;-80
2023/08/16 08:39:20;;;;;;;12.00;4.93;;;;;;;;;;5056184;28;20130;-80
2023/08/16 08:41:46;;;;;;;10.13;5.05;;;;;;;;;;5072674;28;20013;-81
2023/08/16 08:44:11;;;;;;;15.05;5.30;;;;;;;;;;5055291;28;20368;-80
2023/08/16 08:46:37;;;;;;;7.95;4.57;;;;;;;;;;5073826;28;20013;-79
2023/08/16 08:49:03;;;;;;;12.20;5.25;;;;;;;;;;5055662;28;20309;-79
2023/08/16 08:51:32;;;;;;;8.90;4.28;;;;;;;;;;5054825;28;20032;-79
2023/08/16 08:53:57;;;;;;;9.35;4.10;;;;;;;;;;5054565;28;20397;-80
2023/08/16 08:56:23;;;;;;;13.82;5.60;;;;;;;;;;5054798;28;20123;-79
2023/08/16 08:58:50;;;;;;;10.00;4.55;;;;;;;;;;5055042;28;20028;-79
2023/08/16 09:01:15;;;;;;;11.82;4.95;;;;;;;;;;5054863;28;20066;-79
2023/08/16 09:03:43;;;;;;;12.27;4.65;;;;;;;;;;5055710;28;20426;-80
2023/08/16 09:06:09;;;;;;;12.20;5.32;;;;;;;;;;5056225;28;20077;-80
2023/08/16 09:08:36;;;;;;;10.43;4.95;;;;;;;;;;5073872;28;20422;-81
2023/08/16 09:11:01;;;;;;;8.65;4.63;;;;;;;;;;5054932;28;20066;-80
2023/08/16 09:13:27;;;;;;;10.20;4.40;;;;;;;;;;5055841;28;20009;-81
2023/08/16 09:15:52;;;;;;;5.65;3.58;;;;;;;;;;5055922;28;20038;-81
2023/08/16 09:18:19;;;;;;;10.57;4.53;;;;;;;;;;5073810;28;20525;-81
2023/08/16 09:20:45;;;;;;;10.63;4.43;;;;;;;;;;5055899;28;20427;-81
2023/08/16 09:23:14;;;;;;;6.50;4.25;;;;;;;;;;5055547;28;20110;-80
2023/08/16 09:25:40;;;;;;;16.10;5.53;;;;;;;;;;5056667;28;20024;-81
2023/08/16 09:28:08;;;;;;;10.18;4.38;;;;;;;;;;5055764;28;20020;-82
2023/08/16 09:30:34;;;;;;;12.15;4.28;;;;;;;;;;5055580;28;20467;-83
2023/08/16 09:33:00;;;;;;;9.15;4.18;;;;;;;;;;5054041;28;20115;-81
2023/08/16 09:35:26;;;;;;;8.15;4.05;;;;;;;;;;5053121;28;20020;-81
2023/08/16 09:37:55;;;;;;;11.88;4.15;;;;;;;;;;5052633;28;20131;-81
2023/08/16 09:40:20;;;;;;;8.73;4.00;;;;;;;;;;5055395;28;20025;-81
2023/08/16 09:42:46;;;;;;;6.68;4.13;;;;;;;;;;5054829;28;20069;-81
2023/08/16 09:45:11;;;;;;;10.80;4.70;;;;;;;;;;5052998;28;20163;-81
2023/08/16 09:47:45;;;;;;;15.23;5.10;;;;;;;;;;5063935;28;20052;-81
2023/08/16 09:50:12;;;;;;;8.68;4.20;;;;;;;;;;5071522;28;20111;-81
2023/08/16 09:52:39;;;;;;;8.90;4.22;;;;;;;;;;5054414;28;20711;-81
2023/08/16 09:55:07;;;;;;;11.10;4.75;;;;;;;;;;5070440;28;20017;-81
2023/08/16 09:57:33;;;;;;;8.98;5.18;;;;;;;;;;5054619;28;20100;-82
2023/08/16 10:00:01;;;;;;;7.00;3.95;;;;;;;;;;5068771;28;20333;-80
2023/08/16 10:02:27;;;;;;;10.80;4.78;;;;;;;;;;5068345;28;20024;-81
2023/08/16 10:04:53;;;;;;;7.22;4.63;;;;;;;;;;5064616;28;20069;-81
2023/08/16 10:07:18;;;;;;;7.63;3.53;;;;;;;;;;5059993;28;20443;-81
2023/08/16 10:09:44;;;;;;;7.22;3.47;;;;;;;;;;5056080;28;20087;-81
2023/08/16 10:12:09;;;;;;;7.07;3.35;;;;;;;;;;5066689;28;20034;-81
2023/08/16 10:14:37;;;;;;;7.30;2.70;;;;;;;;;;5060202;28;20547;-81
2023/08/16 10:17:06;;;;;;;5.22;3.08;;;;;;;;;;5058821;28;20046;-81
2023/08/16 10:19:33;;;;;;;5.13;2.70;;;;;;;;;;5056432;28;20115;-80
2023/08/16 10:21:59;;;;;;;8.35;3.00;;;;;;;;;;5057459;28;20027;-81
2023/08/16 10:24:25;;;;;;;3.53;2.50;;;;;;;;;;5055029;28;20024;-80
2023/08/16 10:26:50;;;;;;;7.47;3.20;;;;;;;;;;5073876;28;20084;-81
2023/08/16 10:29:19;;;;;;;6.70;2.92;;;;;;;;;;5063842;28;20024;-81
2023/08/16 10:31:48;;;;;;;8.05;3.83;;;;;;;;;;5063158;28;20469;-84
2023/08/16 10:34:14;;;;;;;7.75;2.88;;;;;;;;;;5050284;28;20379;-85
2023/08/16 10:36:40;;;;;;;4.03;2.30;;;;;;;;;;5059446;28;20107;-85
2023/08/16 10:39:07;;;;;;;7.80;2.90;;;;;;;;;;5066461;28;20020;-84
2023/08/16 10:41:45;;;;;;;9.63;2.45;;;;;;;;;;5063839;28;20341;-85
2023/08/16 10:44:20;;;;;;;9.70;2.53;;;;;;;;;;5059225;28;20032;-85
2023/08/16 10:46:50;;;;;;;5.43;2.72;;;;;;;;;;5059471;28;20028;-84
2023/08/16 10:49:15;;;;;;;5.00;2.50;;;;;;;;;;5074158;28;20115;-84
2023/08/16 10:51:44;;;;;;;5.43;2.10;;;;;;;;;;5061811;28;20094;-84
2023/08/16 10:54:09;;;;;;;6.97;1.92;;;;;;;;;;5059031;28;20120;-83
2023/08/16 10:56:44;;;;;;;3.47;2.45;;;;;;;;;;5074431;28;20048;-84
2023/08/16 10:59:10;;;;;;;5.13;1.90;;;;;;;;;;5079215;28;20028;-84
2023/08/16 11:01:43;;;;;;;3.72;1.60;;;;;;;;;;5070912;28;20359;-83
2023/08/16 11:04:11;;;;;;;2.28;1.30;;;;;;;;;;5039832;28;20036;-84
2023/08/16 11:06:39;;;;;;;3.78;1.30;;;;;;;;;;5065658;28;20009;-84
2023/08/16 11:09:07;;;;;;;2.58;1.30;;;;;;;;;;5068873;28;20024;-84
2023/08/16 11:11:33;;;;;;;6.10;1.42;;;;;;;;;;5056816;28;20476;-84
2023/08/16 11:13:59;;;;;;;8.93;1.80;;;;;;;;;;5075511;28;20055;-83
2023/08/16 11:16:24;;;;;;;5.07;1.58;;;;;;;;;;5068762;28;20032;-84
2023/08/16 11:18:49;;;;;;;6.95;1.60;;;;;;;;;;5056832;28;20073;-84
2023/08/16 11:21:17;;;;;;;2.80;1.42;;;;;;;;;;5056379;28;20119;-84
2023/08/16 11:23:43;;;;;;;2.38;1.40;;;;;;;;;;5057388;28;20105;-84
2023/08/16 11:26:09;;;;;;;4.20;1.70;;;;;;;;;;5075221;28;20020;-84
2023/08/16 11:28:35;;;;;;;6.50;1.60;;;;;;;;;;5073658;28;20009;-84
2023/08/16 11:31:01;;;;;;;2.67;1.40;;;;;;;;;;5057196;28;20016;-84
2023/08/16 11:33:31;;;;;;;3.95;1.27;;;;;;;;;;5057164;28;20368;-83
2023/08/16 11:36:04;;;;;;;4.07;1.45;;;;;;;;;;5056464;28;20025;-84
2023/08/16 11:38:29;;;;;;;3.97;1.20;;;;;;;;;;5056271;28;20370;-84
2023/08/16 11:40:55;;;;;;;3.88;1.40;;;;;;;;;;5057115;28;20024;-84
2023/08/16 11:43:30;;;;;;;2.67;1.25;;;;;;;;;;5056714;28;20020;-84
2023/08/16 11:46:00;;;;;;;2.72;1.20;;;;;;;;;;5055388;28;20029;-84
2023/08/16 11:48:29;;;;;;;4.45;1.33;;;;;;;;;;5056900;28;20074;-83
2023/08/16 11:50:58;;;;;;;6.85;1.48;;;;;;;;;;5056904;28;20111;-84
2023/08/16 11:53:29;;;;;;;5.20;1.38;;;;;;;;;;5056576;28;20108;-84
2023/08/16 11:55:58;;;;;;;2.63;1.40;;;;;;;;;;5055955;28;20055;-84
2023/08/16 11:58:26;;;;;;;2.70;1.50;;;;;;;;;;5056518;28;20108;-84
2023/08/16 12:00:52;;;;;;;3.10;1.38;;;;;;;;;;5056504;28;20021;-84
2023/08/16 12:03:18;;;;;;;2.38;1.45;;;;;;;;;;5074990;28;20012;-84
2023/08/16 12:05:50;;;;;;;6.15;1.00;;;;;;;;;;5055781;28;20352;-84
2023/08/16 12:08:22;;;;;;;2.45;1.35;;;;;;;;;;5056773;28;20013;-84
2023/08/16 12:10:47;;;;;;;;;;;;;;;;;;5075362;28;20028;-84
2023/08/16 12:13:13;;;;;;;5.22;1.60;;;;;;;;;;5056710;28;19909;-84
2023/08/16 12:15:39;;;;;;;1.98;1.40;;;;;;;;;;5056168;28;20036;-84
2023/08/16 12:18:05;;;;;;;1.80;1.20;;;;;;;;;;5075106;28;20027;-84
2023/08/16 12:20:30;;;;;;;3.72;1.67;;;;;;;;;;5056177;28;20415;-84
2023/08/16 12:22:58;;;;;;;3.30;1.40;;;;;;;;;;5056213;28;20351;-83
2023/08/16 12:25:23;;;;;;;4.43;1.80;;;;;;;;;;5060227;28;20012;-84
2023/08/16 12:27:49;;;;;;;3.38;1.42;;;;;;;;;;5069240;28;20027;-84
2023/08/16 12:30:14;;;;;;;4.05;1.30;;;;;;;;;;5076450;28;20096;-84
2023/08/16 12:32:39;;;;;;;3.42;1.30;;;;;;;;;;5067592;28;20039;-84
2023/08/16 12:35:05;;;;;;;6.18;1.20;;;;;;;;;;5059373;28;20016;-83
2023/08/16 12:37:30;;;;;;;1.40;0.95;;;;;;;;;;5081584;28;20117;-83
2023/08/16 12:39:56;;;;;;;3.08;1.40;;;;;;;;;;5075348;28;20441;-84
2023/08/16 12:42:21;;;;;;;1.77;1.13;;;;;;;;;;5062736;28;20022;-84
2023/08/16 12:44:46;;;;;;;2.90;1.05;;;;;;;;;;5075919;28;20115;-84
2023/08/16 12:47:12;;;;;;;3.78;1.30;;;;;;;;;;5058374;28;20012;-84
2023/08/16 12:49:37;;;;;;;2.10;1.33;;;;;;;;;;5066337;28;20023;-84
2023/08/16 12:52:02;;;;;;;2.60;1.17;;;;;;;;;;5075498;28;20074;-84
2023/08/16 12:54:28;;;;;;;3.30;1.23;;;;;;;;;;5075675;28;20012;-83
2023/08/16 12:56:53;;;;;;;3.17;1.35;;;;;;;;;;5060240;28;20024;-83
2023/08/16 12:59:18;;;;;;;4.82;1.42;;;;;;;;;;5058409;28;20029;-82
2023/08/16 13:01:45;;;;;;;5.70;1.50;;;;;;;;;;5055559;28;20423;-83
2023/08/16 13:04:10;;;;;;;3.33;1.55;;;;;;;;;;5055377;28;20040;-84
2023/08/16 13:06:35;;;;;;;2.20;1.13;;;;;;;;;;5054384;28;20012;-84
2023/08/16 13:09:01;;;;;;;2.10;1.20;;;;;;;;;;5055298;28;20119;-84
2023/08/16 13:11:26;;;;;;;3.03;1.27;;;;;;;;;;5055154;28;20035;-83
2023/08/16 13:13:51;;;;;;;2.30;1.30;;;;;;;;;;5055079;28;20384;-84
2023/08/16 13:16:17;;;;;;;4.25;1.50;;;;;;;;;;5053490;28;20083;-84
2023/08/16 13:18:42;;;;;;;3.17;1.35;;;;;;;;;;5055241;28;20024;-83
2023/08/16 13:21:13;;;;;;;7.03;1.48;;;;;;;;;;5055352;28;20017;-84
2023/08/16 13:23:39;;;;;;;4.43;1.40;;;;;;;;;;5054962;28;20359;-84
2023/08/16 13:26:04;;;;;;;2.58;1.30;;;;;;;;;;5053911;28;20085;-84
2023/08/16 13:28:30;;;;;;;2.55;0.98;;;;;;;;;;5054027;28;20035;-84
2023/08/16 13:30:56;;;;;;;2.55;1.38;;;;;;;;;;5054890;28;20107;-84
2023/08/16 13:33:21;;;;;;;2.05;1.27;;;;;;;;;;5054695;28;20426;-84
2023/08/16 13:35:47;;;;;;;2.92;1.48;;;;;;;;;;5054118;28;20379;-84
2023/08/16 13:38:16;;;;;;;3.28;1.45;;;;;;;;;;5053648;28;20214;-83
2023/08/16 13:40:42;;;;;;;2.42;1.30;;;;;;;;;;5055515;28;20388;-84
2023/08/16 13:43:07;;;;;;;1.85;1.27;;;;;;;;;;5055176;28;20024;-84
2023/08/16 13:45:33;;;;;;;3.72;1.58;;;;;;;;;;5074669;28;20031;-84
2023/08/16 13:47:59;;;;;;;4.57;1.33;;;;;;;;;;5056926;28;20354;-83
2023/08/16 13:50:30;;;;;;;3.15;1.60;;;;;;;;;;5056774;28;20044;-83
2023/08/16 13:52:56;;;;;;;7.25;1.83;;;;;;;;;;5056615;28;20372;-83
2023/08/16 13:55:21;;;;;;;3.22;1.38;;;;;;;;;;5055494;28;20424;-83
2023/08/16 13:57:46;;;;;;;4.80;1.70;;;;;;;;;;5056869;28;20108;-84
2023/08/16 14:00:12;;;;;;;4.20;1.58;;;;;;;;;;5055441;28;20024;-84
2023/08/16 14:02:38;;;;;;;6.70;1.65;;;;;;;;;;5054992;28;20031;-83
2023/08/16 14:05:04;;;;;;;3.95;1.38;;;;;;;;;;5059192;28;20174;-82
2023/08/16 14:07:29;;;;;;;2.40;1.60;;;;;;;;;;5075131;28;20070;-83
2023/08/16 14:09:54;;;;;;;5.07;2.03;;;;;;;;;;5074811;28;20032;-83
2023/08/16 14:12:20;;;;;;;2.45;1.60;;;;;;;;;;5075064;28;20020;-84
2023/08/16 14:14:45;;;;;;;5.07;1.50;;;;;;;;;;5070140;28;20027;-84
2023/08/16 14:17:10;;;;;;;4.47;1.33;;;;;;;;;;5074670;28;20045;-84
2023/08/16 14:19:36;;;;;;;4.20;1.50;;;;;;;;;;5092732;28;20438;-84
2023/08/16 14:22:01;;;;;;;4.22;1.50;;;;;;;;;;5093011;28;20475;-84
2023/08/16 14:24:29;;;;;;;4.97;1.65;;;;;;;;;;5073245;28;20020;-83
2023/08/16 14:26:54;;;;;;;4.15;1.80;;;;;;;;;;5068527;28;20109;-83
2023/08/16 14:29:20;;;;;;;2.60;1.55;;;;;;;;;;5079443;28;20020;-83
2023/08/16 14:31:48;;;;;;;9.45;1.65;;;;;;;;;;5074343;28;20024;-83